sensor_id;sensor_type;location;lat;lon;timestamp;temperature;humidity
39021;DHT22;25188;51.958;5.842;2023-05-07T00:00:10;16.90;97.40
39021;DHT22;25188;51.958;5.842;2023-05-07T00:02:36;16.90;97.30
39021;DHT22;25188;51.958;5.842;2023-05-07T00:05:03;16.90;97.30
39021;DHT22;25188;51.958;5.842;2023-05-07T00:07:29;16.90;97.30
39021;DHT22;25188;51.958;5.842;2023-05-07T00:09:54;16.80;97.20
39021;DHT22;25188;51.958;5.842;2023-05-07T00:12:20;16.80;97.20
39021;DHT22;25188;51.958;5.842;2023-05-07T00:14:46;16.80;97.20
39021;DHT22;25188;51.958;5.842;2023-05-07T00:17:11;16.80;97.20
39021;DHT22;25188;51.958;5.842;2023-05-07T00:19:37;16.70;97.20
39021;DHT22;25188;51.958;5.842;2023-05-07T00:22:03;16.70;97.20
39021;DHT22;25188;51.958;5.842;2023-05-07T00:24:28;16.70;97.20
39021;DHT22;25188;51.958;5.842;2023-05-07T00:26:54;16.70;97.20
39021;DHT22;25188;51.958;5.842;2023-05-07T00:29:20;16.70;97.30
39021;DHT22;25188;51.958;5.842;2023-05-07T00:31:45;16.70;97.30
39021;DHT22;25188;51.958;5.842;2023-05-07T00:34:11;16.60;97.30
39021;DHT22;25188;51.958;5.842;2023-05-07T00:36:36;16.60;97.30
39021;DHT22;25188;51.958;5.842;2023-05-07T00:39:02;16.60;97.30
39021;DHT22;25188;51.958;5.842;2023-05-07T00:41:29;16.60;97.30
39021;DHT22;25188;51.958;5.842;2023-05-07T00:43:56;16.60;97.30
39021;DHT22;25188;51.958;5.842;2023-05-07T00:46:23;16.60;97.30
39021;DHT22;25188;51.958;5.842;2023-05-07T00:48:50;16.50;97.30
39021;DHT22;25188;51.958;5.842;2023-05-07T00:51:17;16.50;97.30
39021;DHT22;25188;51.958;5.842;2023-05-07T00:53:43;16.50;97.30
39021;DHT22;25188;51.958;5.842;2023-05-07T00:56:08;16.50;97.30
39021;DHT22;25188;51.958;5.842;2023-05-07T00:58:35;16.50;97.60
39021;DHT22;25188;51.958;5.842;2023-05-07T01:01:02;16.40;97.40
39021;DHT22;25188;51.958;5.842;2023-05-07T01:03:27;16.40;97.80
39021;DHT22;25188;51.958;5.842;2023-05-07T01:05:54;16.30;97.50
39021;DHT22;25188;51.958;5.842;2023-05-07T01:08:21;16.30;97.60
39021;DHT22;25188;51.958;5.842;2023-05-07T01:10:48;16.30;97.70
39021;DHT22;25188;51.958;5.842;2023-05-07T01:13:14;16.30;97.90
39021;DHT22;25188;51.958;5.842;2023-05-07T01:15:40;16.30;97.80
39021;DHT22;25188;51.958;5.842;2023-05-07T01:18:07;16.30;97.90
39021;DHT22;25188;51.958;5.842;2023-05-07T01:20:32;16.30;97.90
39021;DHT22;25188;51.958;5.842;2023-05-07T01:23:00;16.30;98.00
39021;DHT22;25188;51.958;5.842;2023-05-07T01:25:26;16.30;98.10
39021;DHT22;25188;51.958;5.842;2023-05-07T01:27:52;16.30;98.20
39021;DHT22;25188;51.958;5.842;2023-05-07T01:30:19;16.30;98.20
39021;DHT22;25188;51.958;5.842;2023-05-07T01:32:59;16.30;98.30
39021;DHT22;25188;51.958;5.842;2023-05-07T01:35:38;16.30;98.30
39021;DHT22;25188;51.958;5.842;2023-05-07T01:38:05;16.30;98.20
39021;DHT22;25188;51.958;5.842;2023-05-07T01:40:32;16.30;98.50
39021;DHT22;25188;51.958;5.842;2023-05-07T01:43:00;16.30;98.20
39021;DHT22;25188;51.958;5.842;2023-05-07T01:45:26;16.30;98.30
39021;DHT22;25188;51.958;5.842;2023-05-07T01:47:53;16.30;98.30
39021;DHT22;25188;51.958;5.842;2023-05-07T01:50:19;16.30;98.30
39021;DHT22;25188;51.958;5.842;2023-05-07T01:52:46;16.30;98.40
39021;DHT22;25188;51.958;5.842;2023-05-07T01:55:12;16.30;98.40
39021;DHT22;25188;51.958;5.842;2023-05-07T01:57:38;16.30;98.50
39021;DHT22;25188;51.958;5.842;2023-05-07T02:00:04;16.30;98.50
39021;DHT22;25188;51.958;5.842;2023-05-07T02:02:33;16.30;98.50
39021;DHT22;25188;51.958;5.842;2023-05-07T02:04:59;16.30;98.50
39021;DHT22;25188;51.958;5.842;2023-05-07T02:07:26;16.30;98.60
39021;DHT22;25188;51.958;5.842;2023-05-07T02:09:52;16.30;98.60
39021;DHT22;25188;51.958;5.842;2023-05-07T02:12:17;16.30;98.60
39021;DHT22;25188;51.958;5.842;2023-05-07T02:14:43;16.30;98.60
39021;DHT22;25188;51.958;5.842;2023-05-07T02:17:08;16.30;98.70
39021;DHT22;25188;51.958;5.842;2023-05-07T02:19:34;16.30;98.70
39021;DHT22;25188;51.958;5.842;2023-05-07T02:22:00;16.30;98.80
39021;DHT22;25188;51.958;5.842;2023-05-07T02:24:26;16.30;98.80
39021;DHT22;25188;51.958;5.842;2023-05-07T02:26:51;16.30;98.90
39021;DHT22;25188;51.958;5.842;2023-05-07T02:29:17;16.20;98.90
39021;DHT22;25188;51.958;5.842;2023-05-07T02:31:42;16.30;98.90
39021;DHT22;25188;51.958;5.842;2023-05-07T02:34:08;16.20;98.90
39021;DHT22;25188;51.958;5.842;2023-05-07T02:36:34;16.20;99.00
39021;DHT22;25188;51.958;5.842;2023-05-07T02:39:00;16.20;99.10
39021;DHT22;25188;51.958;5.842;2023-05-07T02:41:26;16.20;99.20
39021;DHT22;25188;51.958;5.842;2023-05-07T02:43:53;16.20;99.20
39021;DHT22;25188;51.958;5.842;2023-05-07T02:46:19;16.20;99.20
39021;DHT22;25188;51.958;5.842;2023-05-07T02:48:44;16.20;99.20
39021;DHT22;25188;51.958;5.842;2023-05-07T02:51:10;16.20;99.10
39021;DHT22;25188;51.958;5.842;2023-05-07T02:53:36;16.20;99.10
39021;DHT22;25188;51.958;5.842;2023-05-07T02:56:02;16.20;99.10
39021;DHT22;25188;51.958;5.842;2023-05-07T02:58:28;16.20;99.10
39021;DHT22;25188;51.958;5.842;2023-05-07T03:00:53;16.20;99.10
39021;DHT22;25188;51.958;5.842;2023-05-07T03:03:22;16.20;99.10
39021;DHT22;25188;51.958;5.842;2023-05-07T03:05:48;16.10;99.00
39021;DHT22;25188;51.958;5.842;2023-05-07T03:08:13;16.10;99.10
39021;DHT22;25188;51.958;5.842;2023-05-07T03:10:39;16.20;99.10
39021;DHT22;25188;51.958;5.842;2023-05-07T03:13:05;16.20;99.10
39021;DHT22;25188;51.958;5.842;2023-05-07T03:15:31;16.20;99.10
39021;DHT22;25188;51.958;5.842;2023-05-07T03:17:56;16.20;99.10
39021;DHT22;25188;51.958;5.842;2023-05-07T03:20:25;16.10;99.00
39021;DHT22;25188;51.958;5.842;2023-05-07T03:22:50;16.20;99.00
39021;DHT22;25188;51.958;5.842;2023-05-07T03:25:16;16.10;99.00
39021;DHT22;25188;51.958;5.842;2023-05-07T03:27:42;16.10;99.00
39021;DHT22;25188;51.958;5.842;2023-05-07T03:30:08;16.10;99.00
39021;DHT22;25188;51.958;5.842;2023-05-07T03:32:34;16.10;99.10
39021;DHT22;25188;51.958;5.842;2023-05-07T03:35:00;16.10;99.10
39021;DHT22;25188;51.958;5.842;2023-05-07T03:37:26;16.10;99.10
39021;DHT22;25188;51.958;5.842;2023-05-07T03:39:52;16.10;99.10
39021;DHT22;25188;51.958;5.842;2023-05-07T03:42:17;16.00;99.10
39021;DHT22;25188;51.958;5.842;2023-05-07T03:44:43;16.00;99.10
39021;DHT22;25188;51.958;5.842;2023-05-07T03:47:08;16.00;99.20
39021;DHT22;25188;51.958;5.842;2023-05-07T03:49:35;16.00;99.20
39021;DHT22;25188;51.958;5.842;2023-05-07T03:52:01;16.00;99.20
39021;DHT22;25188;51.958;5.842;2023-05-07T03:54:27;16.00;99.30
39021;DHT22;25188;51.958;5.842;2023-05-07T03:56:52;16.00;99.30
39021;DHT22;25188;51.958;5.842;2023-05-07T03:59:18;16.00;99.30
39021;DHT22;25188;51.958;5.842;2023-05-07T04:01:44;16.00;99.40
39021;DHT22;25188;51.958;5.842;2023-05-07T04:04:10;16.00;99.40
39021;DHT22;25188;51.958;5.842;2023-05-07T04:06:35;16.00;99.40
39021;DHT22;25188;51.958;5.842;2023-05-07T04:09:01;16.00;99.50
39021;DHT22;25188;51.958;5.842;2023-05-07T04:11:27;16.00;99.50
39021;DHT22;25188;51.958;5.842;2023-05-07T04:13:52;16.00;99.60
39021;DHT22;25188;51.958;5.842;2023-05-07T04:16:18;16.00;99.60
39021;DHT22;25188;51.958;5.842;2023-05-07T04:18:43;16.00;99.60
39021;DHT22;25188;51.958;5.842;2023-05-07T04:21:17;16.00;99.60
39021;DHT22;25188;51.958;5.842;2023-05-07T04:23:43;16.00;99.70
39021;DHT22;25188;51.958;5.842;2023-05-07T04:26:08;16.00;99.70
39021;DHT22;25188;51.958;5.842;2023-05-07T04:28:35;16.00;99.90
39021;DHT22;25188;51.958;5.842;2023-05-07T04:31:01;16.00;99.80
39021;DHT22;25188;51.958;5.842;2023-05-07T04:33:27;16.00;99.90
39021;DHT22;25188;51.958;5.842;2023-05-07T04:35:53;16.00;99.90
39021;DHT22;25188;51.958;5.842;2023-05-07T04:38:18;16.00;99.90
39021;DHT22;25188;51.958;5.842;2023-05-07T04:40:44;16.00;99.90
39021;DHT22;25188;51.958;5.842;2023-05-07T04:43:11;16.00;99.90
39021;DHT22;25188;51.958;5.842;2023-05-07T04:45:37;15.90;99.90
39021;DHT22;25188;51.958;5.842;2023-05-07T04:48:03;16.00;99.90
39021;DHT22;25188;51.958;5.842;2023-05-07T04:50:28;16.00;99.90
39021;DHT22;25188;51.958;5.842;2023-05-07T04:52:55;16.00;99.90
39021;DHT22;25188;51.958;5.842;2023-05-07T04:55:21;16.00;99.90
39021;DHT22;25188;51.958;5.842;2023-05-07T04:57:47;16.00;99.90
39021;DHT22;25188;51.958;5.842;2023-05-07T05:00:12;16.00;99.90
39021;DHT22;25188;51.958;5.842;2023-05-07T05:02:42;16.00;99.90
39021;DHT22;25188;51.958;5.842;2023-05-07T05:05:07;16.00;99.90
39021;DHT22;25188;51.958;5.842;2023-05-07T05:07:33;16.00;99.90
39021;DHT22;25188;51.958;5.842;2023-05-07T05:09:59;16.00;99.90
39021;DHT22;25188;51.958;5.842;2023-05-07T05:12:25;16.00;99.90
39021;DHT22;25188;51.958;5.842;2023-05-07T05:14:50;16.00;99.90
39021;DHT22;25188;51.958;5.842;2023-05-07T05:17:16;16.00;99.90
39021;DHT22;25188;51.958;5.842;2023-05-07T05:19:42;16.00;99.90
39021;DHT22;25188;51.958;5.842;2023-05-07T05:22:07;16.10;99.90
39021;DHT22;25188;51.958;5.842;2023-05-07T05:24:33;16.10;99.90
39021;DHT22;25188;51.958;5.842;2023-05-07T05:26:58;16.10;99.90
39021;DHT22;25188;51.958;5.842;2023-05-07T05:29:27;16.10;99.90
39021;DHT22;25188;51.958;5.842;2023-05-07T05:31:53;16.10;99.90
39021;DHT22;25188;51.958;5.842;2023-05-07T05:34:18;16.20;99.90
39021;DHT22;25188;51.958;5.842;2023-05-07T05:36:47;16.20;99.90
39021;DHT22;25188;51.958;5.842;2023-05-07T05:39:13;16.20;99.90
39021;DHT22;25188;51.958;5.842;2023-05-07T05:41:39;16.20;99.90
39021;DHT22;25188;51.958;5.842;2023-05-07T05:44:05;16.20;99.90
39021;DHT22;25188;51.958;5.842;2023-05-07T05:46:31;16.30;99.90
39021;DHT22;25188;51.958;5.842;2023-05-07T05:48:56;16.30;99.90
39021;DHT22;25188;51.958;5.842;2023-05-07T05:51:22;16.30;99.90
39021;DHT22;25188;51.958;5.842;2023-05-07T05:53:48;16.30;99.90
39021;DHT22;25188;51.958;5.842;2023-05-07T05:56:15;16.30;99.90
39021;DHT22;25188;51.958;5.842;2023-05-07T05:58:41;16.30;99.90
39021;DHT22;25188;51.958;5.842;2023-05-07T06:01:06;16.40;99.90
39021;DHT22;25188;51.958;5.842;2023-05-07T06:03:32;16.40;99.90
39021;DHT22;25188;51.958;5.842;2023-05-07T06:05:58;16.40;99.90
39021;DHT22;25188;51.958;5.842;2023-05-07T06:08:25;16.50;99.90
39021;DHT22;25188;51.958;5.842;2023-05-07T06:10:51;16.50;99.90
39021;DHT22;25188;51.958;5.842;2023-05-07T06:13:17;16.50;99.90
39021;DHT22;25188;51.958;5.842;2023-05-07T06:15:42;16.50;99.90
39021;DHT22;25188;51.958;5.842;2023-05-07T06:18:08;16.60;99.90
39021;DHT22;25188;51.958;5.842;2023-05-07T06:20:34;16.50;99.90
39021;DHT22;25188;51.958;5.842;2023-05-07T06:22:59;16.60;99.90
39021;DHT22;25188;51.958;5.842;2023-05-07T06:25:25;16.60;99.90
39021;DHT22;25188;51.958;5.842;2023-05-07T06:27:51;16.60;99.90
39021;DHT22;25188;51.958;5.842;2023-05-07T06:30:16;16.60;99.90
39021;DHT22;25188;51.958;5.842;2023-05-07T06:32:42;16.60;99.90
39021;DHT22;25188;51.958;5.842;2023-05-07T06:35:08;16.70;99.90
39021;DHT22;25188;51.958;5.842;2023-05-07T06:37:34;16.70;99.90
39021;DHT22;25188;51.958;5.842;2023-05-07T06:39:59;16.80;99.90
39021;DHT22;25188;51.958;5.842;2023-05-07T06:42:25;16.80;99.90
39021;DHT22;25188;51.958;5.842;2023-05-07T06:44:52;16.80;99.90
39021;DHT22;25188;51.958;5.842;2023-05-07T06:47:17;16.80;99.90
39021;DHT22;25188;51.958;5.842;2023-05-07T06:49:43;16.90;99.90
39021;DHT22;25188;51.958;5.842;2023-05-07T06:52:09;16.90;99.90
39021;DHT22;25188;51.958;5.842;2023-05-07T06:54:34;16.90;99.90
39021;DHT22;25188;51.958;5.842;2023-05-07T06:57:00;17.00;99.90
39021;DHT22;25188;51.958;5.842;2023-05-07T06:59:26;17.00;99.90
39021;DHT22;25188;51.958;5.842;2023-05-07T07:01:51;17.00;99.90
39021;DHT22;25188;51.958;5.842;2023-05-07T07:04:17;17.10;99.90
39021;DHT22;25188;51.958;5.842;2023-05-07T07:06:42;17.20;99.90
39021;DHT22;25188;51.958;5.842;2023-05-07T07:09:08;17.20;99.90
39021;DHT22;25188;51.958;5.842;2023-05-07T07:11:34;17.20;99.90
39021;DHT22;25188;51.958;5.842;2023-05-07T07:14:00;17.30;99.90
39021;DHT22;25188;51.958;5.842;2023-05-07T07:16:25;17.30;99.90
39021;DHT22;25188;51.958;5.842;2023-05-07T07:18:51;17.30;99.90
39021;DHT22;25188;51.958;5.842;2023-05-07T07:21:17;17.30;99.90
39021;DHT22;25188;51.958;5.842;2023-05-07T07:23:42;17.40;99.90
39021;DHT22;25188;51.958;5.842;2023-05-07T07:26:08;17.40;99.90
39021;DHT22;25188;51.958;5.842;2023-05-07T07:28:34;17.40;99.90
39021;DHT22;25188;51.958;5.842;2023-05-07T07:30:59;17.40;99.90
39021;DHT22;25188;51.958;5.842;2023-05-07T07:33:25;17.50;99.90
39021;DHT22;25188;51.958;5.842;2023-05-07T07:35:51;17.50;99.90
39021;DHT22;25188;51.958;5.842;2023-05-07T07:38:16;17.50;99.90
39021;DHT22;25188;51.958;5.842;2023-05-07T07:40:42;17.50;99.90
39021;DHT22;25188;51.958;5.842;2023-05-07T07:43:09;17.50;99.90
39021;DHT22;25188;51.958;5.842;2023-05-07T07:45:34;17.60;99.90
39021;DHT22;25188;51.958;5.842;2023-05-07T07:48:00;17.70;99.80
39021;DHT22;25188;51.958;5.842;2023-05-07T07:50:26;17.70;99.70
39021;DHT22;25188;51.958;5.842;2023-05-07T07:52:52;17.70;99.70
39021;DHT22;25188;51.958;5.842;2023-05-07T07:55:19;17.80;99.60
39021;DHT22;25188;51.958;5.842;2023-05-07T07:57:48;17.80;99.60
39021;DHT22;25188;51.958;5.842;2023-05-07T08:00:14;17.90;99.60
39021;DHT22;25188;51.958;5.842;2023-05-07T08:02:40;18.00;99.60
39021;DHT22;25188;51.958;5.842;2023-05-07T08:05:06;18.00;99.60
39021;DHT22;25188;51.958;5.842;2023-05-07T08:07:32;18.10;99.50
39021;DHT22;25188;51.958;5.842;2023-05-07T08:09:58;18.20;99.50
39021;DHT22;25188;51.958;5.842;2023-05-07T08:12:24;18.30;99.50
39021;DHT22;25188;51.958;5.842;2023-05-07T08:14:49;18.30;99.40
39021;DHT22;25188;51.958;5.842;2023-05-07T08:17:15;18.30;99.20
39021;DHT22;25188;51.958;5.842;2023-05-07T08:19:42;18.40;99.20
39021;DHT22;25188;51.958;5.842;2023-05-07T08:22:09;18.40;99.00
39021;DHT22;25188;51.958;5.842;2023-05-07T08:24:35;18.50;99.00
39021;DHT22;25188;51.958;5.842;2023-05-07T08:27:01;18.60;98.90
39021;DHT22;25188;51.958;5.842;2023-05-07T08:29:26;18.70;98.90
39021;DHT22;25188;51.958;5.842;2023-05-07T08:31:52;18.80;98.80
39021;DHT22;25188;51.958;5.842;2023-05-07T08:34:17;18.90;98.70
39021;DHT22;25188;51.958;5.842;2023-05-07T08:36:44;19.00;98.50
39021;DHT22;25188;51.958;5.842;2023-05-07T08:39:12;19.00;98.30
39021;DHT22;25188;51.958;5.842;2023-05-07T08:41:37;19.10;98.10
39021;DHT22;25188;51.958;5.842;2023-05-07T08:44:06;19.10;97.90
39021;DHT22;25188;51.958;5.842;2023-05-07T08:46:34;19.20;97.70
39021;DHT22;25188;51.958;5.842;2023-05-07T08:49:00;19.20;97.50
39021;DHT22;25188;51.958;5.842;2023-05-07T08:51:26;19.30;97.30
39021;DHT22;25188;51.958;5.842;2023-05-07T08:53:52;19.30;97.20
39021;DHT22;25188;51.958;5.842;2023-05-07T08:56:18;19.40;97.00
39021;DHT22;25188;51.958;5.842;2023-05-07T08:58:46;19.50;96.80
39021;DHT22;25188;51.958;5.842;2023-05-07T09:01:16;19.40;96.50
39021;DHT22;25188;51.958;5.842;2023-05-07T09:03:44;19.50;96.50
39021;DHT22;25188;51.958;5.842;2023-05-07T09:06:10;19.60;96.50
39021;DHT22;25188;51.958;5.842;2023-05-07T09:08:36;19.70;96.40
39021;DHT22;25188;51.958;5.842;2023-05-07T09:11:03;19.80;96.30
39021;DHT22;25188;51.958;5.842;2023-05-07T09:13:29;19.90;96.10
39021;DHT22;25188;51.958;5.842;2023-05-07T09:15:55;20.10;95.90
39021;DHT22;25188;51.958;5.842;2023-05-07T09:18:21;20.10;95.50
39021;DHT22;25188;51.958;5.842;2023-05-07T09:20:46;20.30;95.10
39021;DHT22;25188;51.958;5.842;2023-05-07T09:23:12;20.40;94.70
39021;DHT22;25188;51.958;5.842;2023-05-07T09:25:45;20.50;94.50
39021;DHT22;25188;51.958;5.842;2023-05-07T09:28:10;20.70;94.00
39021;DHT22;25188;51.958;5.842;2023-05-07T09:30:36;20.80;93.70
39021;DHT22;25188;51.958;5.842;2023-05-07T09:33:03;20.80;93.50
39021;DHT22;25188;51.958;5.842;2023-05-07T09:35:30;21.00;93.30
39021;DHT22;25188;51.958;5.842;2023-05-07T09:38:00;21.10;93.10
39021;DHT22;25188;51.958;5.842;2023-05-07T09:40:28;21.30;92.80
39021;DHT22;25188;51.958;5.842;2023-05-07T09:42:54;21.40;92.40
39021;DHT22;25188;51.958;5.842;2023-05-07T09:45:27;21.50;92.20
39021;DHT22;25188;51.958;5.842;2023-05-07T09:47:57;21.60;91.80
39021;DHT22;25188;51.958;5.842;2023-05-07T09:50:39;21.80;91.50
39021;DHT22;25188;51.958;5.842;2023-05-07T09:53:09;21.90;90.90
39021;DHT22;25188;51.958;5.842;2023-05-07T09:55:36;22.10;90.60
39021;DHT22;25188;51.958;5.842;2023-05-07T09:58:04;22.20;90.20
39021;DHT22;25188;51.958;5.842;2023-05-07T10:00:31;22.30;89.80
39021;DHT22;25188;51.958;5.842;2023-05-07T10:02:58;22.40;89.10
39021;DHT22;25188;51.958;5.842;2023-05-07T10:05:26;22.60;88.40
39021;DHT22;25188;51.958;5.842;2023-05-07T10:07:53;22.70;87.30
39021;DHT22;25188;51.958;5.842;2023-05-07T10:10:19;22.80;86.40
39021;DHT22;25188;51.958;5.842;2023-05-07T10:12:45;22.90;85.70
39021;DHT22;25188;51.958;5.842;2023-05-07T10:15:12;23.00;85.00
39021;DHT22;25188;51.958;5.842;2023-05-07T10:17:39;23.20;84.10
39021;DHT22;25188;51.958;5.842;2023-05-07T10:20:06;23.30;83.20
39021;DHT22;25188;51.958;5.842;2023-05-07T10:25:14;23.60;81.80
39021;DHT22;25188;51.958;5.842;2023-05-07T10:27:40;23.80;81.50
39021;DHT22;25188;51.958;5.842;2023-05-07T10:33:16;24.60;79.60
39021;DHT22;25188;51.958;5.842;2023-05-07T10:35:45;25.20;79.20
39021;DHT22;25188;51.958;5.842;2023-05-07T10:38:12;25.50;77.30
39021;DHT22;25188;51.958;5.842;2023-05-07T10:40:38;25.80;76.70
39021;DHT22;25188;51.958;5.842;2023-05-07T10:43:04;26.30;76.10
39021;DHT22;25188;51.958;5.842;2023-05-07T10:45:31;26.70;75.30
39021;DHT22;25188;51.958;5.842;2023-05-07T10:48:13;27.30;74.10
39021;DHT22;25188;51.958;5.842;2023-05-07T10:50:41;27.70;71.50
39021;DHT22;25188;51.958;5.842;2023-05-07T10:55:47;28.60;69.00
39021;DHT22;25188;51.958;5.842;2023-05-07T10:58:23;29.10;68.40
39021;DHT22;25188;51.958;5.842;2023-05-07T11:01:01;29.40;66.20
39021;DHT22;25188;51.958;5.842;2023-05-07T11:03:28;29.60;64.10
39021;DHT22;25188;51.958;5.842;2023-05-07T11:06:09;29.40;62.00
39021;DHT22;25188;51.958;5.842;2023-05-07T11:09:05;29.20;61.30
39021;DHT22;25188;51.958;5.842;2023-05-07T11:11:47;28.80;60.60
39021;DHT22;25188;51.958;5.842;2023-05-07T11:14:14;28.60;60.30
39021;DHT22;25188;51.958;5.842;2023-05-07T11:17:03;28.40;59.30
39021;DHT22;25188;51.958;5.842;2023-05-07T11:19:48;28.10;59.80
39021;DHT22;25188;51.958;5.842;2023-05-07T11:25:04;27.80;60.30
39021;DHT22;25188;51.958;5.842;2023-05-07T11:27:32;27.70;60.30
39021;DHT22;25188;51.958;5.842;2023-05-07T11:30:01;27.50;60.10
39021;DHT22;25188;51.958;5.842;2023-05-07T11:32:31;27.30;60.00
39021;DHT22;25188;51.958;5.842;2023-05-07T11:34:59;27.20;60.60
39021;DHT22;25188;51.958;5.842;2023-05-07T11:37:26;27.00;60.70
39021;DHT22;25188;51.958;5.842;2023-05-07T11:40:03;26.90;60.90
39021;DHT22;25188;51.958;5.842;2023-05-07T11:42:31;26.70;61.00
39021;DHT22;25188;51.958;5.842;2023-05-07T11:44:57;26.50;61.10
39021;DHT22;25188;51.958;5.842;2023-05-07T11:47:23;26.40;61.30
39021;DHT22;25188;51.958;5.842;2023-05-07T11:49:51;26.20;61.50
39021;DHT22;25188;51.958;5.842;2023-05-07T11:52:19;26.10;61.60
39021;DHT22;25188;51.958;5.842;2023-05-07T11:54:52;26.00;61.70
39021;DHT22;25188;51.958;5.842;2023-05-07T11:57:18;25.90;62.10
39021;DHT22;25188;51.958;5.842;2023-05-07T11:59:44;25.80;62.40
39021;DHT22;25188;51.958;5.842;2023-05-07T12:02:10;25.80;62.50
39021;DHT22;25188;51.958;5.842;2023-05-07T12:04:37;25.70;62.60
39021;DHT22;25188;51.958;5.842;2023-05-07T12:07:24;25.70;62.90
39021;DHT22;25188;51.958;5.842;2023-05-07T12:09:52;25.60;63.00
39021;DHT22;25188;51.958;5.842;2023-05-07T12:12:18;25.50;63.00
39021;DHT22;25188;51.958;5.842;2023-05-07T12:14:45;25.40;63.10
39021;DHT22;25188;51.958;5.842;2023-05-07T12:17:13;25.30;63.40
39021;DHT22;25188;51.958;5.842;2023-05-07T12:19:41;25.20;64.00
39021;DHT22;25188;51.958;5.842;2023-05-07T12:22:08;25.30;64.50
39021;DHT22;25188;51.958;5.842;2023-05-07T12:24:45;25.20;65.00
39021;DHT22;25188;51.958;5.842;2023-05-07T12:27:10;25.20;65.90
39021;DHT22;25188;51.958;5.842;2023-05-07T12:29:36;25.10;66.10
39021;DHT22;25188;51.958;5.842;2023-05-07T12:32:06;25.10;66.40
39021;DHT22;25188;51.958;5.842;2023-05-07T12:34:32;25.00;67.50
39021;DHT22;25188;51.958;5.842;2023-05-07T12:36:57;25.00;68.20
39021;DHT22;25188;51.958;5.842;2023-05-07T12:39:26;24.90;68.40
39021;DHT22;25188;51.958;5.842;2023-05-07T12:41:56;24.80;68.50
39021;DHT22;25188;51.958;5.842;2023-05-07T12:44:25;24.70;68.50
39021;DHT22;25188;51.958;5.842;2023-05-07T12:46:51;24.60;68.60
39021;DHT22;25188;51.958;5.842;2023-05-07T12:49:17;24.60;68.80
39021;DHT22;25188;51.958;5.842;2023-05-07T12:51:49;24.60;68.80
39021;DHT22;25188;51.958;5.842;2023-05-07T12:54:33;24.60;69.00
39021;DHT22;25188;51.958;5.842;2023-05-07T12:57:10;24.70;69.00
39021;DHT22;25188;51.958;5.842;2023-05-07T12:59:42;24.90;69.20
39021;DHT22;25188;51.958;5.842;2023-05-07T13:02:11;25.00;69.30
39021;DHT22;25188;51.958;5.842;2023-05-07T13:04:36;25.10;69.10
39021;DHT22;25188;51.958;5.842;2023-05-07T13:07:02;25.20;68.90
39021;DHT22;25188;51.958;5.842;2023-05-07T13:09:28;25.30;68.80
39021;DHT22;25188;51.958;5.842;2023-05-07T13:11:57;25.40;69.00
39021;DHT22;25188;51.958;5.842;2023-05-07T13:14:26;25.50;69.00
39021;DHT22;25188;51.958;5.842;2023-05-07T13:16:52;25.50;68.80
39021;DHT22;25188;51.958;5.842;2023-05-07T13:19:17;25.60;68.60
39021;DHT22;25188;51.958;5.842;2023-05-07T13:21:43;25.60;68.20
39021;DHT22;25188;51.958;5.842;2023-05-07T13:24:09;25.70;68.20
39021;DHT22;25188;51.958;5.842;2023-05-07T13:26:35;25.70;67.90
39021;DHT22;25188;51.958;5.842;2023-05-07T13:29:00;25.70;67.60
39021;DHT22;25188;51.958;5.842;2023-05-07T13:31:26;25.70;67.20
39021;DHT22;25188;51.958;5.842;2023-05-07T13:33:52;25.70;67.10
39021;DHT22;25188;51.958;5.842;2023-05-07T13:36:18;25.70;66.90
39021;DHT22;25188;51.958;5.842;2023-05-07T13:38:43;25.60;66.80
39021;DHT22;25188;51.958;5.842;2023-05-07T13:41:09;25.60;66.40
39021;DHT22;25188;51.958;5.842;2023-05-07T13:43:35;25.60;66.40
39021;DHT22;25188;51.958;5.842;2023-05-07T13:46:00;25.60;66.40
39021;DHT22;25188;51.958;5.842;2023-05-07T13:48:26;25.70;66.50
39021;DHT22;25188;51.958;5.842;2023-05-07T13:50:53;25.70;66.30
39021;DHT22;25188;51.958;5.842;2023-05-07T13:53:19;25.60;66.00
39021;DHT22;25188;51.958;5.842;2023-05-07T13:55:45;25.70;65.90
39021;DHT22;25188;51.958;5.842;2023-05-07T13:58:11;25.70;65.70
39021;DHT22;25188;51.958;5.842;2023-05-07T14:00:36;25.80;65.50
39021;DHT22;25188;51.958;5.842;2023-05-07T14:03:02;25.80;64.90
39021;DHT22;25188;51.958;5.842;2023-05-07T14:05:28;25.80;64.70
39021;DHT22;25188;51.958;5.842;2023-05-07T14:07:55;25.80;64.30
39021;DHT22;25188;51.958;5.842;2023-05-07T14:10:22;26.00;64.50
39021;DHT22;25188;51.958;5.842;2023-05-07T14:12:48;26.10;63.80
39021;DHT22;25188;51.958;5.842;2023-05-07T14:15:14;26.00;63.30
39021;DHT22;25188;51.958;5.842;2023-05-07T14:17:39;25.90;63.20
39021;DHT22;25188;51.958;5.842;2023-05-07T14:20:05;25.80;63.20
39021;DHT22;25188;51.958;5.842;2023-05-07T14:22:32;25.60;63.30
39021;DHT22;25188;51.958;5.842;2023-05-07T14:24:57;25.50;63.30
39021;DHT22;25188;51.958;5.842;2023-05-07T14:27:23;25.20;63.20
39021;DHT22;25188;51.958;5.842;2023-05-07T14:29:49;25.10;63.40
39021;DHT22;25188;51.958;5.842;2023-05-07T14:32:17;25.00;63.50
39021;DHT22;25188;51.958;5.842;2023-05-07T14:34:46;24.90;63.80
39021;DHT22;25188;51.958;5.842;2023-05-07T14:37:12;24.70;64.00
39021;DHT22;25188;51.958;5.842;2023-05-07T14:39:38;24.60;64.20
39021;DHT22;25188;51.958;5.842;2023-05-07T14:42:06;24.40;64.40
39021;DHT22;25188;51.958;5.842;2023-05-07T14:44:34;24.30;64.50
39021;DHT22;25188;51.958;5.842;2023-05-07T14:47:00;24.20;64.80
39021;DHT22;25188;51.958;5.842;2023-05-07T14:49:26;24.10;65.00
39021;DHT22;25188;51.958;5.842;2023-05-07T14:51:51;24.00;65.20
39021;DHT22;25188;51.958;5.842;2023-05-07T14:54:17;23.90;65.40
39021;DHT22;25188;51.958;5.842;2023-05-07T14:56:42;23.80;65.70
39021;DHT22;25188;51.958;5.842;2023-05-07T14:59:08;23.80;66.00
39021;DHT22;25188;51.958;5.842;2023-05-07T15:01:35;23.70;66.30
39021;DHT22;25188;51.958;5.842;2023-05-07T15:04:04;23.60;66.50
39021;DHT22;25188;51.958;5.842;2023-05-07T15:06:31;23.50;66.80
39021;DHT22;25188;51.958;5.842;2023-05-07T15:08:57;23.50;67.20
39021;DHT22;25188;51.958;5.842;2023-05-07T15:11:22;23.40;67.60
39021;DHT22;25188;51.958;5.842;2023-05-07T15:13:50;23.40;67.90
39021;DHT22;25188;51.958;5.842;2023-05-07T15:16:15;23.30;68.30
39021;DHT22;25188;51.958;5.842;2023-05-07T15:18:42;23.20;68.50
39021;DHT22;25188;51.958;5.842;2023-05-07T15:21:07;23.10;67.30
39021;DHT22;25188;51.958;5.842;2023-05-07T15:23:33;22.90;66.90
39021;DHT22;25188;51.958;5.842;2023-05-07T15:25:59;22.60;66.90
39021;DHT22;25188;51.958;5.842;2023-05-07T15:28:24;22.50;67.00
39021;DHT22;25188;51.958;5.842;2023-05-07T15:30:50;22.20;67.30
39021;DHT22;25188;51.958;5.842;2023-05-07T15:33:16;22.10;67.50
39021;DHT22;25188;51.958;5.842;2023-05-07T15:35:42;21.80;67.80
39021;DHT22;25188;51.958;5.842;2023-05-07T15:38:07;21.60;68.50